createdAt,value
2022-11-10T00:01:10.617Z,99.90
2022-11-10T00:03:40.186Z,99.90
2022-11-10T00:06:09.104Z,99.90
2022-11-10T00:08:35.831Z,99.90
2022-11-10T00:11:13.272Z,99.90
2022-11-10T00:13:59.995Z,99.90
2022-11-10T00:16:47.835Z,99.90
2022-11-10T00:19:16.840Z,99.90
2022-11-10T00:21:43.524Z,99.90
2022-11-10T00:24:12.755Z,99.90
2022-11-10T00:26:39.400Z,99.90
2022-11-10T00:29:06.086Z,99.90
2022-11-10T00:31:32.786Z,99.90
2022-11-10T00:33:59.553Z,99.90
2022-11-10T00:36:26.324Z,99.90
2022-11-10T00:38:53.171Z,99.90
2022-11-10T00:41:22.316Z,99.90
2022-11-10T00:43:49.519Z,99.90
2022-11-10T00:46:19.144Z,99.90
2022-11-10T00:48:45.852Z,99.90
2022-11-10T00:51:26.452Z,99.90
2022-11-10T00:53:56.032Z,99.90
2022-11-10T00:56:23.537Z,99.90
2022-11-10T00:58:50.636Z,99.90
2022-11-10T01:01:19.151Z,99.90
2022-11-10T01:03:45.899Z,99.90
2022-11-10T01:06:15.071Z,99.90
2022-11-10T01:08:42.300Z,99.90
2022-11-10T01:11:15.533Z,99.90
2022-11-10T01:13:42.827Z,99.90
2022-11-10T01:16:12.904Z,99.90
2022-11-10T01:18:39.862Z,99.90
2022-11-10T01:21:07.215Z,99.90
2022-11-10T01:23:34.207Z,99.90
2022-11-10T01:26:07.833Z,99.90
2022-11-10T01:28:37.595Z,99.90
2022-11-10T01:31:12.512Z,99.90
2022-11-10T01:33:39.368Z,99.90
2022-11-10T01:36:07.754Z,99.90
2022-11-10T01:38:37.198Z,99.90
2022-11-10T01:41:05.778Z,99.90
2022-11-10T01:43:33.075Z,99.90
2022-11-10T01:46:03.825Z,99.90
2022-11-10T01:48:46.089Z,99.90
2022-11-10T01:51:50.694Z,99.90
2022-11-10T01:54:27.288Z,99.90
2022-11-10T01:57:01.840Z,99.90
2022-11-10T01:59:32.242Z,99.90
2022-11-10T02:02:06.673Z,99.90
2022-11-10T02:04:34.674Z,99.90
2022-11-10T02:07:01.822Z,99.90
2022-11-10T02:09:28.602Z,99.90
2022-11-10T02:11:58.184Z,99.90
2022-11-10T02:14:25.394Z,99.90
2022-11-10T02:16:52.199Z,99.90
2022-11-10T02:19:24.674Z,99.90
2022-11-10T02:21:51.436Z,99.90
2022-11-10T02:24:18.171Z,99.90
2022-11-10T02:26:52.710Z,99.90
2022-11-10T02:29:19.503Z,99.90
2022-11-10T02:31:46.193Z,99.90
2022-11-10T02:34:12.899Z,99.90
2022-11-10T02:36:39.645Z,99.90
2022-11-10T02:39:06.439Z,99.90
2022-11-10T02:41:33.149Z,99.90
2022-11-10T02:43:59.933Z,99.90
2022-11-10T02:46:26.674Z,99.90
2022-11-10T02:48:53.403Z,99.90
2022-11-10T02:51:20.193Z,99.90
2022-11-10T02:53:47.055Z,99.90
2022-11-10T02:56:13.748Z,99.90
2022-11-10T02:58:40.448Z,99.90
2022-11-10T03:01:07.463Z,99.90
2022-11-10T03:03:35.120Z,99.90
2022-11-10T03:06:02.042Z,99.90
2022-11-10T03:08:28.776Z,99.90
2022-11-10T03:10:56.598Z,99.90
2022-11-10T03:13:25.231Z,99.90
2022-11-10T03:15:52.168Z,99.90
2022-11-10T03:18:21.153Z,99.90
2022-11-10T03:20:49.729Z,99.90
2022-11-10T03:23:19.613Z,99.90
2022-11-10T03:25:46.553Z,99.90
2022-11-10T03:28:13.496Z,99.90
2022-11-10T03:30:40.323Z,99.90
2022-11-10T03:33:07.368Z,99.90
2022-11-10T03:35:34.148Z,99.90
2022-11-10T03:38:00.969Z,99.90
2022-11-10T03:40:28.149Z,99.90
2022-11-10T03:42:54.882Z,99.90
2022-11-10T03:45:21.552Z,99.90
2022-11-10T03:47:49.749Z,99.90
2022-11-10T03:50:17.352Z,99.90
2022-11-10T03:52:47.193Z,99.90
2022-11-10T03:55:16.981Z,99.90
2022-11-10T03:57:44.573Z,99.90
2022-11-10T04:00:13.572Z,99.90
2022-11-10T04:02:40.359Z,99.90
2022-11-10T04:05:26.697Z,99.90
2022-11-10T04:08:19.360Z,99.90
2022-11-10T04:10:46.754Z,99.90
2022-11-10T04:13:32.408Z,99.90
2022-11-10T04:15:59.194Z,99.90
2022-11-10T04:18:26.099Z,99.90
2022-11-10T04:20:55.107Z,99.90
2022-11-10T04:23:36.218Z,99.90
2022-11-10T04:26:23.549Z,99.90
2022-11-10T04:28:52.580Z,99.90
2022-11-10T04:31:21.219Z,99.90
2022-11-10T04:33:49.206Z,99.90
2022-11-10T04:36:18.975Z,99.90
2022-11-10T04:38:46.314Z,99.90
2022-11-10T04:41:13.826Z,99.90
2022-11-10T04:43:40.914Z,99.90
2022-11-10T04:46:16.885Z,99.90
2022-11-10T04:48:43.612Z,99.90
2022-11-10T04:51:12.920Z,99.90
2022-11-10T04:53:39.762Z,99.90
2022-11-10T04:56:15.534Z,99.90
2022-11-10T04:58:42.804Z,99.90
2022-11-10T05:01:14.903Z,99.90
2022-11-10T05:03:42.547Z,99.90
2022-11-10T05:06:09.981Z,99.90
2022-11-10T05:08:37.977Z,99.90
2022-11-10T05:11:05.459Z,99.90
2022-11-10T05:13:32.792Z,99.90
2022-11-10T05:15:59.621Z,99.90
2022-11-10T05:18:26.320Z,99.90
2022-11-10T05:20:53.473Z,99.90
2022-11-10T05:23:39.474Z,99.90
2022-11-10T05:26:06.186Z,99.90
2022-11-10T05:28:33.478Z,99.90
2022-11-10T05:31:00.350Z,99.90
2022-11-10T05:33:27.040Z,99.90
2022-11-10T05:35:53.776Z,99.90
2022-11-10T05:38:20.493Z,99.90
2022-11-10T05:40:47.267Z,99.90
2022-11-10T05:43:14.126Z,99.90
2022-11-10T05:45:40.848Z,99.90
2022-11-10T05:48:07.555Z,99.90
2022-11-10T05:50:34.388Z,99.90
2022-11-10T05:53:01.064Z,99.90
2022-11-10T05:55:29.328Z,99.90
2022-11-10T05:57:57.407Z,99.90
2022-11-10T06:00:26.803Z,99.90
2022-11-10T06:03:07.560Z,99.90
2022-11-10T06:05:37.537Z,99.90
2022-11-10T06:08:05.921Z,99.90
2022-11-10T06:10:36.598Z,99.90
2022-11-10T06:13:03.821Z,99.90
2022-11-10T06:15:32.786Z,99.90
2022-11-10T06:18:02.170Z,99.90
2022-11-10T06:20:29.207Z,99.90
2022-11-10T06:23:01.811Z,99.90
2022-11-10T06:25:30.849Z,99.90
2022-11-10T06:27:58.325Z,99.90
2022-11-10T06:30:28.635Z,99.90
2022-11-10T06:32:57.776Z,99.90
2022-11-10T06:35:34.363Z,99.90
2022-11-10T06:38:02.200Z,99.90
2022-11-10T06:40:32.600Z,99.90
2022-11-10T06:43:02.264Z,99.90
2022-11-10T06:45:29.317Z,99.90
2022-11-10T06:48:03.976Z,99.90
2022-11-10T06:50:33.575Z,99.90
2022-11-10T06:53:01.015Z,99.90
2022-11-10T06:55:28.233Z,99.90
2022-11-10T06:57:57.646Z,99.90
2022-11-10T07:00:27.192Z,99.90
2022-11-10T07:03:22.699Z,99.90
2022-11-10T07:05:49.535Z,99.90
2022-11-10T07:08:16.591Z,99.90
2022-11-10T07:10:55.423Z,99.90
2022-11-10T07:13:23.249Z,99.90
2022-11-10T07:15:52.377Z,99.90
2022-11-10T07:18:21.578Z,99.90
2022-11-10T07:20:48.233Z,99.90
2022-11-10T07:23:14.915Z,99.90
2022-11-10T07:25:41.821Z,99.90
2022-11-10T07:28:10.606Z,99.90
2022-11-10T07:30:37.878Z,99.90
2022-11-10T07:33:15.168Z,99.90
2022-11-10T07:35:50.405Z,99.90
2022-11-10T07:38:19.435Z,99.90
2022-11-10T07:40:46.132Z,99.90
2022-11-10T07:43:15.071Z,99.90
2022-11-10T07:45:41.803Z,99.90
2022-11-10T07:48:09.555Z,99.90
2022-11-10T07:50:38.806Z,99.90
2022-11-10T07:53:10.530Z,99.90
2022-11-10T07:55:39.486Z,99.90
2022-11-10T07:58:07.338Z,99.90
2022-11-10T08:00:35.218Z,99.90
2022-11-10T08:03:13.405Z,99.90
2022-11-10T08:05:40.361Z,99.90
2022-11-10T08:08:07.445Z,99.90
2022-11-10T08:10:35.846Z,99.90
2022-11-10T08:13:05.218Z,99.90
2022-11-10T08:15:34.203Z,99.90
2022-11-10T08:18:12.950Z,99.90
2022-11-10T08:20:39.680Z,99.90
2022-11-10T08:23:07.174Z,99.90
2022-11-10T08:25:36.398Z,99.90
2022-11-10T08:28:04.606Z,99.90
2022-11-10T08:30:32.722Z,99.90
2022-11-10T08:33:01.611Z,99.90
2022-11-10T08:35:30.361Z,99.90
2022-11-10T08:37:57.054Z,99.90
2022-11-10T08:40:27.754Z,99.90
2022-11-10T08:43:01.923Z,99.90
2022-11-10T08:45:29.047Z,99.90
2022-11-10T08:48:13.569Z,99.90
2022-11-10T08:50:40.901Z,99.90
2022-11-10T08:53:11.615Z,99.90
2022-11-10T08:55:38.934Z,99.90
2022-11-10T08:58:06.512Z,99.90
2022-11-10T09:00:35.840Z,99.90
2022-11-10T09:03:14.615Z,99.90
2022-11-10T09:05:41.951Z,99.90
2022-11-10T09:08:09.407Z,99.90
2022-11-10T09:10:39.527Z,99.90
2022-11-10T09:13:06.480Z,99.90
2022-11-10T09:15:34.650Z,99.90
2022-11-10T09:18:03.301Z,99.90
2022-11-10T09:20:32.308Z,99.90
2022-11-10T09:23:06.351Z,99.90
2022-11-10T09:25:33.125Z,99.90
2022-11-10T09:27:59.934Z,99.90
2022-11-10T09:30:26.628Z,99.90
2022-11-10T09:32:54.656Z,99.90
2022-11-10T09:35:22.230Z,99.90
2022-11-10T09:37:49.247Z,99.90
2022-11-10T09:40:23.373Z,99.90
2022-11-10T09:42:55.447Z,99.90
2022-11-10T09:45:39.727Z,99.90
2022-11-10T09:48:16.463Z,99.90
2022-11-10T09:51:04.304Z,99.90
2022-11-10T09:53:31.038Z,99.90
2022-11-10T09:56:06.480Z,99.90
2022-11-10T09:58:52.045Z,99.90
2022-11-10T10:01:45.581Z,99.90
2022-11-10T10:04:30.487Z,99.90
2022-11-10T10:07:11.900Z,99.90
2022-11-10T10:09:57.362Z,99.90
2022-11-10T10:13:01.750Z,99.90
2022-11-10T10:15:53.305Z,99.90
2022-11-10T10:18:40.885Z,99.40
2022-11-10T10:21:45.992Z,99.30
2022-11-10T10:24:21.728Z,99.00
2022-11-10T10:26:53.886Z,98.80
2022-11-10T10:29:28.592Z,98.50
2022-11-10T10:32:01.127Z,98.20
2022-11-10T10:34:32.065Z,97.80
2022-11-10T10:36:58.828Z,97.20
2022-11-10T10:39:34.428Z,97.00
2022-11-10T10:42:00.989Z,96.70
2022-11-10T10:44:27.733Z,96.20
2022-11-10T10:47:00.174Z,96.00
2022-11-10T10:49:39.320Z,96.10
2022-11-10T10:52:15.063Z,95.50
2022-11-10T10:54:44.334Z,95.00
2022-11-10T10:57:29.262Z,94.60
2022-11-10T11:00:18.009Z,94.70
2022-11-10T11:03:05.034Z,94.20
2022-11-10T11:05:32.404Z,94.10
2022-11-10T11:08:01.256Z,93.80
2022-11-10T11:10:33.929Z,94.10
2022-11-10T11:13:22.468Z,94.10
2022-11-10T11:16:02.546Z,93.80
2022-11-10T11:18:31.466Z,93.80
2022-11-10T11:21:20.239Z,93.70
2022-11-10T11:23:53.054Z,93.40
2022-11-10T11:26:34.797Z,93.00
2022-11-10T11:29:19.332Z,92.70
2022-11-10T11:31:54.423Z,92.40
2022-11-10T11:34:39.608Z,92.10
2022-11-10T11:37:27.008Z,91.90
2022-11-10T11:40:10.511Z,91.50
2022-11-10T11:42:46.037Z,91.80
2022-11-10T11:45:16.681Z,91.20
2022-11-10T11:47:52.240Z,91.30
2022-11-10T11:50:25.119Z,91.50
2022-11-10T11:53:10.122Z,91.20
2022-11-10T11:56:08.680Z,90.70
2022-11-10T11:58:57.084Z,90.60
2022-11-10T12:01:38.428Z,90.00
2022-11-10T12:04:43.038Z,90.20
2022-11-10T12:07:35.569Z,90.00
2022-11-10T12:10:05.406Z,89.60
2022-11-10T12:12:49.559Z,89.00
2022-11-10T12:15:22.190Z,87.80
2022-11-10T12:17:59.105Z,87.50
2022-11-10T12:20:47.796Z,86.70
2022-11-10T12:23:41.662Z,85.60
2022-11-10T12:26:22.915Z,84.90
2022-11-10T12:29:00.806Z,83.80
2022-11-10T12:31:32.462Z,83.50
2022-11-10T12:34:03.294Z,83.10
2022-11-10T12:36:31.734Z,82.10
2022-11-10T12:39:05.443Z,81.50
2022-11-10T12:41:41.813Z,81.40
2022-11-10T12:44:32.963Z,80.40
2022-11-10T12:47:06.894Z,78.90
2022-11-10T12:49:45.019Z,78.20
2022-11-10T12:52:21.565Z,79.30
2022-11-10T12:54:51.117Z,78.40
2022-11-10T12:57:24.918Z,77.20
2022-11-10T13:00:04.684Z,75.80
2022-11-10T13:02:44.053Z,75.60
2022-11-10T13:05:30.891Z,75.20
2022-11-10T13:08:57.986Z,75.00
2022-11-10T13:11:33.655Z,74.70
2022-11-10T13:14:03.077Z,74.00
2022-11-10T13:16:41.859Z,75.60
2022-11-10T13:19:10.718Z,74.60
2022-11-10T13:22:10.315Z,74.20
2022-11-10T13:24:42.409Z,73.70
2022-11-10T13:27:30.932Z,72.50
2022-11-10T13:29:59.145Z,72.20
2022-11-10T13:32:35.857Z,72.60
2022-11-10T13:35:32.891Z,72.50
2022-11-10T13:38:04.294Z,73.40
2022-11-10T13:40:34.842Z,72.90
2022-11-10T13:43:01.569Z,72.20
2022-11-10T13:45:42.801Z,70.40
2022-11-10T13:48:12.459Z,69.60
2022-11-10T13:51:00.989Z,68.30
2022-11-10T13:53:46.749Z,67.80
2022-11-10T13:56:25.920Z,68.30
2022-11-10T13:58:52.938Z,68.60
2022-11-10T14:01:22.119Z,67.70
2022-11-10T14:03:48.985Z,68.00
2022-11-10T14:06:36.109Z,67.60
2022-11-10T14:09:27.573Z,67.70
2022-11-10T14:12:03.379Z,67.90
2022-11-10T14:14:47.641Z,69.00
2022-11-10T14:17:27.885Z,68.90
2022-11-10T14:19:54.816Z,69.00
2022-11-10T14:22:38.803Z,68.70
2022-11-10T14:25:37.182Z,68.60
2022-11-10T14:28:29.360Z,68.00
2022-11-10T14:30:57.067Z,69.30
2022-11-10T14:33:24.961Z,69.10
2022-11-10T14:36:08.854Z,69.90
2022-11-10T14:38:43.998Z,69.00
2022-11-10T14:41:16.131Z,68.70
2022-11-10T14:43:42.924Z,69.80
2022-11-10T14:46:15.006Z,70.40
2022-11-10T14:48:41.757Z,70.00
2022-11-10T14:51:20.156Z,70.20
2022-11-10T14:53:55.395Z,70.70
2022-11-10T14:56:36.540Z,71.80
2022-11-10T14:59:08.609Z,73.10
2022-11-10T15:01:38.943Z,74.10
2022-11-10T15:04:08.529Z,75.10
2022-11-10T15:06:36.974Z,75.30
2022-11-10T15:09:15.552Z,75.70
2022-11-10T15:12:05.602Z,76.20
2022-11-10T15:14:39.396Z,76.50
2022-11-10T15:17:11.640Z,76.60
2022-11-10T15:19:53.452Z,76.80
2022-11-10T15:22:24.300Z,77.40
2022-11-10T15:24:53.627Z,77.80
2022-11-10T15:27:28.853Z,78.20
2022-11-10T15:29:58.444Z,78.60
2022-11-10T15:32:33.921Z,79.60
2022-11-10T15:35:18.309Z,80.60
2022-11-10T15:38:05.258Z,81.40
2022-11-10T15:40:47.898Z,82.60
2022-11-10T15:43:14.840Z,82.90
2022-11-10T15:45:47.776Z,82.80
2022-11-10T15:48:19.369Z,83.40
2022-11-10T15:50:49.432Z,83.60
2022-11-10T15:53:25.953Z,84.00
2022-11-10T15:55:55.153Z,84.40
2022-11-10T15:58:23.325Z,85.00
2022-11-10T16:00:52.619Z,85.50
2022-11-10T16:03:21.837Z,85.70
2022-11-10T16:05:48.772Z,86.70
2022-11-10T16:08:18.776Z,88.00
2022-11-10T16:10:55.542Z,89.20
2022-11-10T16:13:34.788Z,89.60
2022-11-10T16:16:01.619Z,90.00
2022-11-10T16:18:30.369Z,90.50
2022-11-10T16:21:02.008Z,90.80
2022-11-10T16:23:28.762Z,91.10
2022-11-10T16:25:57.054Z,91.40
2022-11-10T16:28:32.559Z,91.60
2022-11-10T16:30:59.553Z,91.70
2022-11-10T16:33:29.081Z,91.70
2022-11-10T16:35:56.905Z,91.80
2022-11-10T16:38:26.610Z,92.00
2022-11-10T16:40:56.880Z,92.10
2022-11-10T16:43:26.877Z,92.20
2022-11-10T16:45:56.645Z,92.30
2022-11-10T16:48:27.797Z,92.40
2022-11-10T16:50:57.866Z,92.30
2022-11-10T16:53:29.188Z,92.40
2022-11-10T16:55:58.512Z,92.60
2022-11-10T16:58:27.275Z,92.70
2022-11-10T17:00:59.860Z,92.70
2022-11-10T17:03:32.422Z,93.00
2022-11-10T17:05:59.913Z,92.90
2022-11-10T17:08:29.526Z,93.10
2022-11-10T17:11:01.800Z,93.10
2022-11-10T17:13:28.606Z,93.40
2022-11-10T17:16:05.988Z,93.50
2022-11-10T17:18:35.578Z,93.70
2022-11-10T17:21:05.194Z,93.50
2022-11-10T17:23:33.574Z,93.50
2022-11-10T17:26:00.351Z,93.40
2022-11-10T17:28:27.055Z,93.40
2022-11-10T17:30:56.315Z,93.60
2022-11-10T17:33:25.618Z,93.80
2022-11-10T17:35:53.608Z,94.00
2022-11-10T17:38:26.578Z,93.80
2022-11-10T17:40:56.377Z,93.90
2022-11-10T17:43:23.824Z,94.00
2022-11-10T17:45:51.133Z,94.10
2022-11-10T17:48:22.598Z,94.00
2022-11-10T17:50:49.290Z,94.20
2022-11-10T17:53:20.011Z,94.30
2022-11-10T17:55:48.041Z,94.20
2022-11-10T17:58:15.555Z,94.40
2022-11-10T18:00:44.158Z,94.40
2022-11-10T18:03:19.369Z,94.40
2022-11-10T18:05:47.152Z,94.60
2022-11-10T18:08:15.504Z,94.60
2022-11-10T18:10:53.000Z,94.70
2022-11-10T18:13:19.847Z,94.70
2022-11-10T18:15:48.042Z,94.80
2022-11-10T18:18:15.966Z,94.90
2022-11-10T18:20:45.734Z,94.90
2022-11-10T18:23:12.900Z,95.00
2022-11-10T18:25:41.546Z,94.90
2022-11-10T18:28:12.215Z,94.80
2022-11-10T18:30:39.138Z,94.80
2022-11-10T18:33:06.877Z,94.90
2022-11-10T18:35:37.796Z,95.00
2022-11-10T18:38:05.585Z,95.10
2022-11-10T18:40:32.535Z,95.00
2022-11-10T18:43:04.622Z,95.20
2022-11-10T18:45:33.864Z,95.20
2022-11-10T18:48:03.116Z,95.10
2022-11-10T18:50:29.927Z,95.20
2022-11-10T18:52:56.783Z,95.00
2022-11-10T18:55:26.049Z,94.90
2022-11-10T18:57:52.899Z,94.90
2022-11-10T19:00:20.200Z,95.10
2022-11-10T19:02:47.528Z,95.10
2022-11-10T19:05:17.282Z,95.30
2022-11-10T19:07:44.309Z,95.30
2022-11-10T19:10:11.200Z,95.40
2022-11-10T19:12:38.007Z,95.40
2022-11-10T19:15:05.412Z,95.50
2022-11-10T19:17:32.722Z,95.40
2022-11-10T19:19:59.658Z,95.50
2022-11-10T19:22:26.399Z,95.60
2022-11-10T19:25:07.501Z,95.70
2022-11-10T19:27:35.600Z,95.70
2022-11-10T19:30:02.381Z,95.90
2022-11-10T19:32:29.735Z,95.90
2022-11-10T19:34:56.634Z,96.00
2022-11-10T19:37:23.364Z,96.00
2022-11-10T19:39:53.122Z,95.90
2022-11-10T19:42:20.094Z,95.90
2022-11-10T19:44:46.847Z,95.80
2022-11-10T19:47:13.560Z,95.90
2022-11-10T19:49:40.298Z,95.90
2022-11-10T19:52:07.200Z,95.90
2022-11-10T19:54:34.999Z,96.00
2022-11-10T19:57:01.770Z,96.10
2022-11-10T19:59:28.548Z,96.20
2022-11-10T20:01:59.233Z,96.30
2022-11-10T20:04:26.757Z,96.40
2022-11-10T20:07:14.384Z,96.60
2022-11-10T20:09:43.327Z,96.80
2022-11-10T20:12:12.506Z,96.90
2022-11-10T20:14:39.277Z,96.90
2022-11-10T20:17:05.934Z,97.20
2022-11-10T20:19:40.892Z,97.00
2022-11-10T20:22:08.230Z,97.00
2022-11-10T20:24:37.171Z,97.00
2022-11-10T20:27:04.048Z,97.00
2022-11-10T20:29:30.850Z,96.90
2022-11-10T20:31:59.761Z,97.00
2022-11-10T20:34:26.492Z,97.00
2022-11-10T20:36:55.106Z,97.10
2022-11-10T20:39:22.000Z,97.20
2022-11-10T20:41:50.701Z,97.30
2022-11-10T20:44:22.461Z,97.50
2022-11-10T20:46:54.372Z,97.60
2022-11-10T20:49:24.068Z,97.60
2022-11-10T20:51:50.893Z,97.70
2022-11-10T20:54:17.586Z,97.80
2022-11-10T20:56:52.531Z,97.90
2022-11-10T20:59:19.617Z,97.90
2022-11-10T21:01:46.854Z,98.00
2022-11-10T21:04:13.816Z,98.20
2022-11-10T21:06:40.622Z,98.30
2022-11-10T21:09:07.794Z,98.40
2022-11-10T21:11:52.957Z,98.30
2022-11-10T21:14:19.748Z,98.40
2022-11-10T21:16:46.490Z,98.50
2022-11-10T21:19:13.216Z,98.70
2022-11-10T21:21:42.247Z,98.70
2022-11-10T21:24:09.869Z,98.70
2022-11-10T21:26:37.730Z,98.80
2022-11-10T21:29:07.600Z,98.60
2022-11-10T21:31:34.809Z,98.70
2022-11-10T21:34:01.571Z,98.80
2022-11-10T21:36:29.460Z,98.90
2022-11-10T21:38:57.360Z,98.90
2022-11-10T21:41:24.671Z,99.30
2022-11-10T21:43:51.680Z,99.10
2022-11-10T21:46:18.951Z,99.10
2022-11-10T21:48:45.785Z,99.30
2022-11-10T21:51:14.313Z,99.50
2022-11-10T21:53:42.292Z,99.50
2022-11-10T21:56:13.284Z,99.40
2022-11-10T21:58:40.444Z,99.60
2022-11-10T22:01:10.548Z,99.90
2022-11-10T22:03:40.615Z,99.90
2022-11-10T22:06:15.870Z,99.90
2022-11-10T22:08:44.312Z,99.90
2022-11-10T22:11:38.651Z,99.90
2022-11-10T22:14:35.942Z,99.90
2022-11-10T22:17:21.569Z,99.90
2022-11-10T22:19:48.254Z,99.90
2022-11-10T22:22:15.095Z,99.90
2022-11-10T22:24:41.822Z,99.90
2022-11-10T22:27:09.006Z,99.90
2022-11-10T22:29:35.906Z,99.90
2022-11-10T22:32:03.349Z,99.90
2022-11-10T22:34:30.056Z,99.90
2022-11-10T22:36:57.195Z,99.90
2022-11-10T22:39:43.930Z,99.90
2022-11-10T22:42:32.508Z,99.90
2022-11-10T22:44:59.498Z,99.90
2022-11-10T22:47:48.994Z,99.90
2022-11-10T22:50:18.747Z,99.90
2022-11-10T22:52:47.977Z,99.90
2022-11-10T22:55:14.847Z,99.90
2022-11-10T22:57:41.552Z,99.90
2022-11-10T23:00:09.509Z,99.90
2022-11-10T23:02:36.541Z,99.90
2022-11-10T23:05:03.378Z,99.90
2022-11-10T23:07:30.061Z,99.90
2022-11-10T23:09:56.798Z,99.90
2022-11-10T23:12:23.498Z,99.90
2022-11-10T23:14:50.344Z,99.90
2022-11-10T23:17:19.823Z,99.90
2022-11-10T23:19:46.576Z,99.90
2022-11-10T23:22:13.277Z,99.90
2022-11-10T23:24:39.967Z,99.90
2022-11-10T23:27:06.722Z,99.90
2022-11-10T23:29:33.432Z,99.90
2022-11-10T23:32:00.207Z,99.90
2022-11-10T23:34:26.912Z,99.90
2022-11-10T23:36:53.639Z,99.90
2022-11-10T23:39:20.431Z,99.90
2022-11-10T23:41:47.102Z,99.90
2022-11-10T23:44:13.856Z,99.90
2022-11-10T23:46:40.647Z,99.90
2022-11-10T23:49:07.386Z,99.90
2022-11-10T23:51:34.066Z,99.90
2022-11-10T23:54:00.876Z,99.90
2022-11-10T23:56:29.831Z,99.90
2022-11-10T23:58:56.634Z,99.90
